createdAt,value
2018-09-20T00:01:14.600Z,0.00
2018-09-20T00:02:46.177Z,0.00
2018-09-20T00:04:17.751Z,0.00
2018-09-20T00:05:49.328Z,0.00
2018-09-20T00:07:20.903Z,0.00
2018-09-20T00:08:52.733Z,0.00
2018-09-20T00:10:24.055Z,0.00
2018-09-20T00:11:55.631Z,0.00
2018-09-20T00:13:27.206Z,0.00
2018-09-20T00:16:30.511Z,0.00
2018-09-20T00:18:01.933Z,0.00
2018-09-20T00:19:33.511Z,0.00
2018-09-20T00:21:05.085Z,0.00
2018-09-20T00:22:36.811Z,0.00
2018-09-20T00:24:08.252Z,0.00
2018-09-20T00:25:39.811Z,0.00
2018-09-20T00:27:11.388Z,0.00
2018-09-20T00:28:43.167Z,0.00
2018-09-20T00:30:14.539Z,0.00
2018-09-20T00:33:17.691Z,0.00
2018-09-20T00:34:49.266Z,0.00
2018-09-20T00:36:20.842Z,0.00
2018-09-20T00:37:52.418Z,0.00
2018-09-20T00:39:23.994Z,0.00
2018-09-20T00:40:55.571Z,0.00
2018-09-20T00:42:27.145Z,0.00
2018-09-20T00:43:58.721Z,0.00
2018-09-20T00:45:30.298Z,0.00
2018-09-20T00:47:01.973Z,0.00
2018-09-20T00:48:33.449Z,0.00
2018-09-20T00:50:05.027Z,0.00
2018-09-20T00:51:36.601Z,0.00
2018-09-20T00:53:08.178Z,0.00
2018-09-20T00:54:39.753Z,0.00
2018-09-20T00:56:11.328Z,0.00
2018-09-20T00:57:42.905Z,0.00
2018-09-20T00:59:14.630Z,0.00
2018-09-20T01:00:46.056Z,0.00
2018-09-20T01:02:17.633Z,0.00
2018-09-20T01:03:49.731Z,0.00
2018-09-20T01:05:20.883Z,0.00
2018-09-20T01:08:23.934Z,0.00
2018-09-20T01:09:55.510Z,0.00
2018-09-20T01:11:27.086Z,0.00
2018-09-20T01:12:58.662Z,0.00
2018-09-20T01:14:30.238Z,0.00
2018-09-20T01:16:01.814Z,0.00
2018-09-20T01:17:33.391Z,0.00
2018-09-20T01:19:04.968Z,0.00
2018-09-20T01:20:36.542Z,0.00
2018-09-20T01:22:08.160Z,0.00
2018-09-20T01:23:39.792Z,0.00
2018-09-20T01:25:11.267Z,0.00
2018-09-20T01:26:42.846Z,0.00
2018-09-20T01:28:14.418Z,0.00
2018-09-20T01:29:46.005Z,0.00
2018-09-20T01:31:17.572Z,0.00
2018-09-20T01:32:49.163Z,0.00
2018-09-20T01:34:20.721Z,0.00
2018-09-20T01:35:52.306Z,0.00
2018-09-20T01:37:23.875Z,0.00
2018-09-20T01:40:27.023Z,0.00
2018-09-20T01:41:58.706Z,0.00
2018-09-20T01:43:30.175Z,0.00
2018-09-20T01:45:01.750Z,0.00
2018-09-20T01:46:33.325Z,0.00
2018-09-20T01:48:04.904Z,0.00
2018-09-20T01:49:36.479Z,0.00
2018-09-20T01:51:08.052Z,0.00
2018-09-20T01:52:39.628Z,0.00
2018-09-20T01:54:11.204Z,0.00
2018-09-20T01:55:42.781Z,0.00
2018-09-20T01:57:14.354Z,0.00
2018-09-20T01:58:45.962Z,0.00
2018-09-20T02:00:17.604Z,0.00
2018-09-20T02:01:49.282Z,0.00
2018-09-20T02:03:20.655Z,0.00
2018-09-20T02:06:23.804Z,0.00
2018-09-20T02:07:55.380Z,0.00
2018-09-20T02:09:26.955Z,0.00
2018-09-20T02:10:58.531Z,0.00
2018-09-20T02:12:30.106Z,0.00
2018-09-20T02:14:01.687Z,0.00
2018-09-20T02:15:33.256Z,0.00
2018-09-20T02:17:04.830Z,0.00
2018-09-20T02:18:36.534Z,0.00
2018-09-20T02:20:07.982Z,0.00
2018-09-20T02:21:39.557Z,0.00
2018-09-20T02:23:11.145Z,0.00
2018-09-20T02:24:42.709Z,0.00
2018-09-20T02:26:14.286Z,0.00
2018-09-20T02:27:45.867Z,0.00
2018-09-20T02:29:17.439Z,0.00
2018-09-20T02:30:49.110Z,0.00
2018-09-20T02:32:20.585Z,0.00
2018-09-20T02:33:52.165Z,0.00
2018-09-20T02:35:23.739Z,0.00
2018-09-20T02:38:26.993Z,0.00
2018-09-20T02:39:58.462Z,0.00
2018-09-20T02:41:30.046Z,0.00
2018-09-20T02:43:01.613Z,0.00
2018-09-20T02:44:33.191Z,0.00
2018-09-20T02:46:04.767Z,0.00
2018-09-20T02:47:36.347Z,0.00
2018-09-20T02:49:07.916Z,0.00
2018-09-20T02:50:39.494Z,0.00
2018-09-20T02:52:11.068Z,0.00
2018-09-20T02:53:42.644Z,0.00
2018-09-20T02:55:14.220Z,0.00
2018-09-20T02:56:45.897Z,0.00
2018-09-20T02:58:17.371Z,0.00
2018-09-20T02:59:48.947Z,0.00
2018-09-20T03:01:20.523Z,0.00
2018-09-20T03:04:23.773Z,0.00
2018-09-20T03:05:55.248Z,0.00
2018-09-20T03:07:26.825Z,0.00
2018-09-20T03:08:58.601Z,0.00
2018-09-20T03:10:29.979Z,0.00
2018-09-20T03:12:01.598Z,0.00
2018-09-20T03:13:33.124Z,0.00
2018-09-20T03:15:04.697Z,0.00
2018-09-20T03:16:36.375Z,0.00
2018-09-20T03:18:07.848Z,0.00
2018-09-20T03:19:39.736Z,0.00
2018-09-20T03:21:10.993Z,0.00
2018-09-20T03:22:42.567Z,0.00
2018-09-20T03:24:14.142Z,0.00
2018-09-20T03:27:17.289Z,0.00
2018-09-20T03:28:49.163Z,0.00
2018-09-20T03:30:20.463Z,4.00
2018-09-20T03:31:52.012Z,0.00
2018-09-20T03:33:23.582Z,0.00
2018-09-20T03:36:26.926Z,0.00
2018-09-20T03:37:58.298Z,0.00
2018-09-20T03:39:29.870Z,0.00
2018-09-20T03:41:01.965Z,0.00
2018-09-20T03:42:33.014Z,0.00
2018-09-20T03:45:36.196Z,4.00
2018-09-20T03:47:07.728Z,0.00
2018-09-20T03:48:39.299Z,0.00
2018-09-20T03:50:10.868Z,0.00
2018-09-20T03:53:14.008Z,0.00
2018-09-20T03:54:45.681Z,0.00
2018-09-20T03:56:17.150Z,0.00
2018-09-20T03:57:48.720Z,0.00
2018-09-20T03:59:20.289Z,0.00
2018-09-20T04:00:52.683Z,0.00
2018-09-20T14:30:39.025Z,29408.00
2018-09-20T14:32:11.227Z,30080.00
2018-09-20T14:33:41.881Z,30624.00
2018-09-20T14:35:14.084Z,30624.00
2018-09-20T14:38:16.922Z,29120.00
2018-09-20T14:42:51.566Z,26976.00
2018-09-20T14:44:23.157Z,26112.00
2018-09-20T14:45:55.432Z,25120.00
2018-09-20T14:47:27.513Z,24064.00
2018-09-20T14:48:59.209Z,23040.00
2018-09-20T14:52:01.141Z,20672.00
2018-09-20T14:53:35.448Z,19424.00
2018-09-20T14:55:05.688Z,18368.00
2018-09-20T14:56:35.625Z,17376.00
2018-09-20T14:58:08.527Z,16612.00
2018-09-20T14:59:40.266Z,15972.00
2018-09-20T15:01:10.322Z,15444.00
2018-09-20T15:02:42.909Z,14980.00
2018-09-20T15:04:13.949Z,14580.00
2018-09-20T15:07:16.627Z,14380.00
2018-09-20T15:08:48.206Z,14608.00
2018-09-20T15:10:19.809Z,14960.00
2018-09-20T15:14:54.846Z,17668.00
2018-09-20T15:16:27.120Z,18848.00
2018-09-20T15:19:29.246Z,17492.00
2018-09-20T15:25:35.754Z,15120.00
2018-09-20T15:28:38.707Z,14472.00
2018-09-20T15:30:10.281Z,13996.00
2018-09-20T15:31:42.622Z,13952.00
2018-09-20T15:34:45.213Z,15788.00
2018-09-20T15:36:16.584Z,17028.00
2018-09-20T15:37:48.795Z,18368.00
2018-09-20T15:39:19.762Z,19424.00
2018-09-20T15:40:51.615Z,20544.00
2018-09-20T15:42:22.888Z,21696.00
2018-09-20T15:43:55.071Z,23008.00
2018-09-20T15:45:26.243Z,24352.00
2018-09-20T15:46:57.616Z,25600.00
2018-09-20T15:48:29.195Z,26560.00
2018-09-20T15:50:01.385Z,27072.00
2018-09-20T15:51:32.450Z,26848.00
2018-09-20T15:53:04.441Z,26208.00
2018-09-20T15:56:07.074Z,27200.00
2018-09-20T15:57:38.792Z,29088.00
2018-09-20T16:00:43.148Z,34624.00
2018-09-20T16:02:14.569Z,36800.00
2018-09-20T16:03:45.653Z,38496.00
2018-09-20T16:05:16.533Z,42048.00
2018-09-20T16:06:48.291Z,47488.00
2018-09-20T16:08:20.142Z,56768.00
2018-09-20T16:11:23.047Z,69664.00
2018-09-20T16:12:54.807Z,66112.00
2018-09-20T16:14:26.086Z,59648.00
2018-09-20T16:15:57.585Z,54400.00
2018-09-20T16:17:29.470Z,52896.00
2018-09-20T16:20:32.622Z,53056.00
2018-09-20T16:22:03.900Z,57216.00
2018-09-20T16:23:35.581Z,57312.00
2018-09-20T16:25:07.160Z,59808.00
2018-09-20T16:26:38.971Z,58432.00
2018-09-20T16:29:42.401Z,59808.00
2018-09-20T16:31:13.427Z,57984.00
2018-09-20T16:32:45.465Z,57792.00
2018-09-20T16:34:16.747Z,56448.00
2018-09-20T16:37:19.707Z,60896.00
2018-09-20T16:38:51.540Z,60192.00
2018-09-20T16:40:23.262Z,52512.00
2018-09-20T16:41:54.499Z,47328.00
2018-09-20T16:43:26.082Z,42336.00
2018-09-20T16:44:57.710Z,37088.00
2018-09-20T16:46:29.496Z,35488.00
2018-09-20T16:48:00.771Z,37504.00
2018-09-20T16:49:32.362Z,41568.00
2018-09-20T16:51:05.613Z,43328.00
2018-09-20T16:54:07.141Z,31328.00
2018-09-20T16:55:39.404Z,25568.00
2018-09-20T16:57:11.317Z,22048.00
2018-09-20T16:58:41.831Z,20096.00
2018-09-20T17:00:14.024Z,19584.00
2018-09-20T17:01:45.011Z,19392.00
2018-09-20T17:03:17.388Z,18912.00
2018-09-20T17:04:48.449Z,18304.00
2018-09-20T17:06:20.307Z,18464.00
2018-09-20T17:07:51.333Z,19968.00
2018-09-20T17:09:23.401Z,22752.00
2018-09-20T17:10:54.455Z,26976.00
2018-09-20T17:12:26.033Z,32704.00
2018-09-20T17:13:57.914Z,35872.00
2018-09-20T17:15:29.189Z,36192.00
2018-09-20T17:18:32.344Z,35040.00
2018-09-20T17:21:35.601Z,33312.00
2018-09-20T17:23:07.080Z,34944.00
2018-09-20T17:24:38.882Z,41632.00
2018-09-20T17:26:10.756Z,40608.00
2018-09-20T17:29:13.392Z,33984.00
2018-09-20T17:33:48.711Z,25408.00
2018-09-20T17:35:20.219Z,23936.00
2018-09-20T17:36:51.665Z,22688.00
2018-09-20T17:38:23.873Z,21824.00
2018-09-20T17:39:55.115Z,20960.00
2018-09-20T17:41:27.853Z,20384.00
2018-09-20T17:42:58.456Z,20288.00
2018-09-20T17:44:29.934Z,19232.00
2018-09-20T17:46:01.039Z,17264.00
2018-09-20T17:47:32.604Z,15644.00
2018-09-20T17:49:04.368Z,14320.00
2018-09-20T17:50:35.557Z,13368.00
2018-09-20T17:52:07.394Z,13232.00
2018-09-20T17:53:38.679Z,13488.00
2018-09-20T17:55:10.273Z,13704.00
2018-09-20T17:56:42.026Z,13556.00
2018-09-20T17:59:45.123Z,12608.00
2018-09-20T18:01:16.562Z,12216.00
2018-09-20T18:02:48.806Z,12052.00
2018-09-20T18:04:20.050Z,12144.00
2018-09-20T18:05:51.307Z,12652.00
2018-09-20T18:07:23.500Z,13428.00
2018-09-20T18:10:26.127Z,15700.00
2018-09-20T18:11:57.628Z,17984.00
2018-09-20T18:15:01.090Z,22624.00
2018-09-20T18:16:32.456Z,23392.00
2018-09-20T18:18:04.693Z,23776.00
2018-09-20T18:19:35.685Z,23840.00
2018-09-20T18:21:07.124Z,24096.00
2018-09-20T18:22:38.738Z,23520.00
2018-09-20T18:25:41.900Z,19392.00
2018-09-20T18:27:13.402Z,18624.00
2018-09-20T18:28:45.149Z,18080.00
2018-09-20T18:30:16.617Z,19136.00
2018-09-20T18:31:48.142Z,20864.00
2018-09-20T18:33:20.182Z,20416.00
2018-09-20T18:34:51.301Z,19360.00
2018-09-20T18:36:23.070Z,19296.00
2018-09-20T18:37:54.741Z,19776.00
2018-09-20T18:39:26.202Z,20000.00
2018-09-20T18:42:29.762Z,20512.00
2018-09-20T18:44:01.251Z,23296.00
2018-09-20T18:45:32.661Z,25184.00
2018-09-20T18:47:03.970Z,25344.00
2018-09-20T18:48:35.751Z,24192.00
2018-09-20T18:50:07.655Z,22688.00
2018-09-20T18:51:38.985Z,21600.00
2018-09-20T18:53:10.624Z,21184.00
2018-09-20T18:54:41.961Z,21440.00
2018-09-20T18:56:13.848Z,21280.00
2018-09-20T18:57:44.965Z,20992.00
2018-09-20T19:00:48.512Z,21952.00
2018-09-20T19:02:19.756Z,22976.00
2018-09-20T19:03:51.586Z,24704.00
2018-09-20T19:05:22.960Z,25088.00
2018-09-20T19:06:54.510Z,24160.00
2018-09-20T19:08:26.008Z,23040.00
2018-09-20T19:09:57.709Z,22112.00
2018-09-20T19:11:29.779Z,21472.00
2018-09-20T19:13:00.981Z,20192.00
2018-09-20T19:14:32.820Z,18336.00
2018-09-20T19:16:04.046Z,16436.00
2018-09-20T19:17:35.606Z,15224.00
2018-09-20T19:19:07.027Z,14504.00
2018-09-20T19:20:38.959Z,13428.00
2018-09-20T19:22:10.546Z,12104.00
2018-09-20T19:23:41.944Z,11680.00
2018-09-20T19:25:13.718Z,12644.00
2018-09-20T19:26:45.449Z,13844.00
2018-09-20T19:28:16.901Z,15252.00
2018-09-20T19:29:49.306Z,17104.00
2018-09-20T19:31:20.058Z,19296.00
2018-09-20T19:34:23.115Z,21056.00
2018-09-20T19:35:54.573Z,20672.00
2018-09-20T19:38:57.874Z,16656.00
2018-09-20T19:40:29.487Z,15032.00
2018-09-20T19:42:01.679Z,13664.00
2018-09-20T19:43:32.830Z,12268.00
2018-09-20T19:45:03.982Z,11472.00
2018-09-20T19:46:35.773Z,11740.00
2018-09-20T19:48:07.792Z,12684.00
2018-09-20T19:49:39.034Z,12636.00
2018-09-20T19:51:10.333Z,10544.00
2018-09-20T19:54:13.724Z,6416.00
2018-09-20T19:55:44.907Z,5592.00
2018-09-20T19:58:48.107Z,5020.00
2018-09-20T20:00:19.867Z,5012.00
2018-09-20T20:01:51.293Z,5068.00
2018-09-20T20:03:22.758Z,5128.00
2018-09-20T20:04:54.370Z,5208.00
2018-09-20T20:06:26.246Z,5480.00
2018-09-20T20:07:57.486Z,5960.00
2018-09-20T20:09:29.362Z,6580.00
2018-09-20T20:11:00.724Z,7392.00
2018-09-20T20:12:32.834Z,7944.00
2018-09-20T20:15:35.385Z,8044.00
2018-09-20T20:17:06.941Z,7428.00
2018-09-20T20:18:38.721Z,6428.00
2018-09-20T20:21:42.191Z,5952.00
2018-09-20T20:24:45.027Z,4908.00
2018-09-20T20:29:19.550Z,3568.00
2018-09-20T20:32:23.000Z,3468.00
2018-09-20T20:33:54.276Z,3076.00
2018-09-20T20:35:26.058Z,2520.00
2018-09-20T20:36:58.262Z,2168.00
2018-09-20T20:40:00.579Z,1968.00
2018-09-20T20:41:32.159Z,1864.00
2018-09-20T20:43:03.733Z,1700.00
2018-09-20T20:44:35.331Z,1508.00
2018-09-20T20:46:07.084Z,1304.00
2018-09-20T20:47:38.457Z,1092.00
2018-09-20T20:49:10.036Z,872.00
2018-09-20T20:52:13.285Z,520.00
2018-09-20T20:53:44.761Z,412.00
2018-09-20T20:55:16.640Z,340.00
2018-09-20T20:56:47.912Z,316.00
2018-09-20T20:58:19.490Z,308.00
2018-09-20T20:59:51.063Z,308.00
2018-09-20T21:01:22.639Z,296.00
2018-09-20T21:04:25.789Z,240.00
2018-09-20T21:05:57.674Z,184.00
2018-09-20T21:07:29.292Z,140.00
2018-09-20T21:10:32.396Z,68.00
2018-09-20T21:12:03.799Z,44.00
2018-09-20T21:13:35.247Z,28.00
2018-09-20T21:15:06.822Z,20.00
2018-09-20T21:16:38.485Z,12.00
2018-09-20T21:18:09.965Z,12.00
2018-09-20T21:19:42.264Z,8.00
2018-09-20T21:21:13.114Z,4.00
2018-09-20T21:22:44.688Z,4.00
2018-09-20T21:24:16.265Z,0.00
2018-09-20T21:25:47.840Z,0.00
2018-09-20T21:27:19.413Z,0.00
2018-09-20T21:28:51.391Z,0.00
2018-09-20T21:30:22.562Z,0.00
2018-09-20T21:31:54.138Z,0.00
2018-09-20T21:33:25.710Z,0.00
2018-09-20T21:34:57.591Z,0.00
2018-09-20T21:36:28.861Z,0.00
2018-09-20T21:38:00.435Z,0.00
2018-09-20T21:39:32.011Z,0.00
2018-09-20T21:41:03.582Z,0.00
2018-09-20T21:44:06.731Z,0.00
2018-09-20T21:45:38.306Z,0.00
2018-09-20T21:47:09.982Z,0.00
2018-09-20T21:48:41.458Z,0.00
2018-09-20T21:50:13.090Z,0.00
2018-09-20T21:51:44.906Z,0.00
2018-09-20T21:53:16.176Z,0.00
2018-09-20T21:54:47.749Z,0.00
2018-09-20T21:56:19.338Z,0.00
2018-09-20T21:57:50.898Z,0.00
2018-09-20T21:59:22.471Z,0.00
2018-09-20T22:02:25.622Z,0.00
2018-09-20T22:03:57.193Z,0.00
2018-09-20T22:05:29.118Z,0.00
2018-09-20T22:07:00.847Z,0.00
2018-09-20T22:08:32.434Z,0.00
2018-09-20T22:10:03.487Z,0.00
2018-09-20T22:11:35.061Z,0.00
2018-09-20T22:13:06.635Z,0.00
2018-09-20T22:14:38.209Z,0.00
2018-09-20T22:16:09.783Z,0.00
2018-09-20T22:17:41.357Z,0.00
2018-09-20T22:19:12.930Z,0.00
2018-09-20T22:20:44.504Z,0.00
2018-09-20T22:22:16.080Z,0.00
2018-09-20T22:25:19.327Z,0.00
2018-09-20T22:26:50.801Z,0.00
2018-09-20T22:28:22.374Z,0.00
2018-09-20T22:29:53.952Z,0.00
2018-09-20T22:31:25.523Z,0.00
2018-09-20T22:32:57.097Z,0.00
2018-09-20T22:34:28.669Z,0.00
2018-09-20T22:36:00.243Z,0.00
2018-09-20T22:37:31.818Z,0.00
2018-09-20T22:39:03.392Z,0.00
2018-09-20T22:40:34.966Z,0.00
2018-09-20T22:42:06.540Z,0.00
2018-09-20T22:43:38.212Z,0.00
2018-09-20T22:45:09.737Z,0.00
2018-09-20T22:46:41.443Z,0.00
2018-09-20T22:48:12.838Z,0.00
2018-09-20T22:49:44.409Z,0.00
2018-09-20T22:51:15.981Z,0.00
2018-09-20T22:52:47.610Z,0.00
2018-09-20T22:54:19.505Z,0.00
2018-09-20T22:55:50.904Z,0.00
2018-09-20T22:57:22.277Z,0.00
2018-09-20T22:58:53.852Z,0.00
2018-09-20T23:00:25.425Z,0.00
2018-09-20T23:01:57.102Z,0.00
2018-09-20T23:03:28.725Z,0.00
2018-09-20T23:05:00.146Z,0.00
2018-09-20T23:06:31.721Z,0.00
2018-09-20T23:08:03.292Z,0.00
2018-09-20T23:09:34.866Z,0.00
2018-09-20T23:11:06.438Z,0.00
2018-09-20T23:12:38.010Z,0.00
2018-09-20T23:14:09.587Z,0.00
2018-09-20T23:15:41.156Z,0.00
2018-09-20T23:17:12.729Z,0.00
2018-09-20T23:18:44.301Z,0.00
2018-09-20T23:20:15.975Z,0.00
2018-09-20T23:21:47.447Z,0.00
2018-09-20T23:23:19.022Z,0.00
2018-09-20T23:24:50.598Z,0.00
2018-09-20T23:26:22.265Z,0.00
2018-09-20T23:27:53.773Z,0.00
2018-09-20T23:29:25.309Z,0.00
2018-09-20T23:30:56.883Z,0.00
2018-09-20T23:32:28.605Z,0.00
2018-09-20T23:34:00.031Z,0.00
2018-09-20T23:35:31.599Z,0.00
2018-09-20T23:37:03.175Z,0.00
2018-09-20T23:38:34.844Z,0.00
2018-09-20T23:40:06.317Z,0.00
2018-09-20T23:41:37.892Z,0.00
2018-09-20T23:43:09.663Z,0.00
2018-09-20T23:44:41.134Z,0.00
2018-09-20T23:46:12.607Z,0.00
2018-09-20T23:47:44.180Z,0.00
2018-09-20T23:49:15.753Z,0.00
2018-09-20T23:50:47.351Z,0.00
2018-09-20T23:52:18.897Z,0.00
2018-09-20T23:53:50.473Z,0.00
2018-09-20T23:55:22.062Z,0.00
2018-09-20T23:56:53.922Z,0.00
2018-09-20T23:58:25.187Z,0.00
2018-09-20T23:59:56.760Z,0.00
